createdAt,value
2022-07-26T00:00:53.188Z,13.00
2022-07-26T00:03:20.511Z,13.00
2022-07-26T00:05:47.849Z,13.00
2022-07-26T00:08:15.119Z,13.00
2022-07-26T00:10:45.490Z,13.00
2022-07-26T00:13:13.327Z,12.90
2022-07-26T00:15:40.690Z,12.90
2022-07-26T00:18:11.938Z,12.90
2022-07-26T00:20:39.991Z,12.90
2022-07-26T00:23:09.000Z,12.80
2022-07-26T00:25:37.094Z,12.80
2022-07-26T00:28:05.148Z,12.80
2022-07-26T00:30:32.535Z,12.80
2022-07-26T00:32:59.914Z,12.80
2022-07-26T00:35:27.233Z,12.70
2022-07-26T00:37:54.552Z,12.70
2022-07-26T00:40:22.167Z,12.70
2022-07-26T00:42:49.461Z,12.70
2022-07-26T00:45:18.119Z,12.70
2022-07-26T00:47:46.067Z,12.60
2022-07-26T00:50:18.931Z,12.70
2022-07-26T00:52:49.248Z,12.60
2022-07-26T00:55:16.694Z,12.60
2022-07-26T00:57:44.519Z,12.50
2022-07-26T01:00:15.211Z,12.60
2022-07-26T01:02:43.106Z,12.50
2022-07-26T01:05:11.091Z,12.50
2022-07-26T01:07:39.030Z,12.50
2022-07-26T01:10:10.936Z,12.50
2022-07-26T01:12:38.918Z,12.40
2022-07-26T01:15:07.230Z,12.40
2022-07-26T01:17:34.889Z,12.40
2022-07-26T01:20:07.647Z,12.40
2022-07-26T01:22:35.077Z,12.40
2022-07-26T01:25:02.381Z,12.30
2022-07-26T01:27:33.792Z,12.30
2022-07-26T01:30:01.563Z,12.30
2022-07-26T01:32:28.878Z,12.20
2022-07-26T01:34:56.211Z,12.20
2022-07-26T01:37:23.442Z,12.20
2022-07-26T01:39:50.705Z,12.20
2022-07-26T01:42:17.946Z,12.20
2022-07-26T01:44:45.213Z,12.10
2022-07-26T01:47:12.488Z,12.10
2022-07-26T01:49:40.216Z,12.10
2022-07-26T01:52:07.511Z,12.10
2022-07-26T01:54:34.839Z,12.00
2022-07-26T01:57:02.264Z,12.00
2022-07-26T01:59:29.604Z,12.00
2022-07-26T02:01:57.002Z,12.00
2022-07-26T02:04:42.914Z,12.00
2022-07-26T02:07:12.977Z,12.00
2022-07-26T02:09:41.090Z,12.00
2022-07-26T02:12:08.873Z,12.00
2022-07-26T02:14:36.597Z,12.00
2022-07-26T02:17:04.829Z,11.90
2022-07-26T02:19:32.522Z,12.00
2022-07-26T02:22:00.042Z,12.00
2022-07-26T02:24:31.218Z,11.90
2022-07-26T02:26:59.827Z,11.90
2022-07-26T02:29:28.490Z,11.90
2022-07-26T02:31:56.476Z,11.90
2022-07-26T02:34:24.618Z,11.90
2022-07-26T02:36:52.442Z,11.90
2022-07-26T02:39:20.222Z,11.90
2022-07-26T02:41:47.744Z,11.90
2022-07-26T02:44:15.069Z,11.90
2022-07-26T02:46:42.405Z,11.90
2022-07-26T02:49:09.789Z,11.90
2022-07-26T02:51:37.160Z,12.00
2022-07-26T02:54:04.817Z,12.00
2022-07-26T02:56:32.289Z,12.00
2022-07-26T02:58:59.587Z,12.00
2022-07-26T03:01:27.155Z,12.10
2022-07-26T03:03:54.414Z,12.10
2022-07-26T03:06:21.680Z,12.10
2022-07-26T03:08:50.038Z,12.20
2022-07-26T03:11:17.306Z,12.20
2022-07-26T03:13:44.547Z,12.20
2022-07-26T03:16:11.876Z,12.30
2022-07-26T03:18:39.274Z,12.30
2022-07-26T03:21:06.845Z,12.30
2022-07-26T03:23:35.187Z,12.40
2022-07-26T03:26:03.223Z,12.40
2022-07-26T03:28:32.104Z,12.40
2022-07-26T03:30:59.880Z,12.50
2022-07-26T03:33:27.366Z,12.50
2022-07-26T03:35:54.727Z,12.60
2022-07-26T03:38:22.313Z,12.70
2022-07-26T03:40:49.585Z,12.70
2022-07-26T03:43:19.992Z,12.70
2022-07-26T03:45:50.085Z,12.80
2022-07-26T03:48:17.736Z,12.90
2022-07-26T03:50:45.361Z,13.00
2022-07-26T03:53:12.721Z,13.00
2022-07-26T03:55:58.636Z,13.10
2022-07-26T03:58:25.917Z,13.20
2022-07-26T04:00:53.313Z,13.30
2022-07-26T04:03:22.894Z,13.30
2022-07-26T04:05:50.383Z,13.40
2022-07-26T04:08:20.213Z,13.50
2022-07-26T04:10:51.575Z,13.60
2022-07-26T04:13:20.348Z,13.70
2022-07-26T04:15:47.947Z,13.70
2022-07-26T04:18:15.250Z,13.80
2022-07-26T04:20:43.409Z,13.90
2022-07-26T04:23:11.791Z,14.00
2022-07-26T04:25:41.257Z,14.10
2022-07-26T04:28:09.416Z,14.20
2022-07-26T04:30:36.883Z,14.30
2022-07-26T04:33:04.811Z,14.40
2022-07-26T04:35:32.726Z,14.50
2022-07-26T04:38:00.396Z,14.60
2022-07-26T04:40:33.501Z,14.80
2022-07-26T04:43:02.459Z,14.90
2022-07-26T04:45:30.391Z,15.10
2022-07-26T04:47:58.111Z,15.30
2022-07-26T04:50:26.188Z,15.40
2022-07-26T04:52:53.508Z,15.50
2022-07-26T04:55:23.038Z,15.60
2022-07-26T04:57:51.085Z,15.70
2022-07-26T05:00:23.772Z,15.80
2022-07-26T05:02:54.200Z,15.90
2022-07-26T05:05:22.600Z,16.00
2022-07-26T05:07:56.025Z,16.20
2022-07-26T05:10:32.662Z,16.40
2022-07-26T05:13:00.322Z,16.60
2022-07-26T05:15:35.390Z,16.80
2022-07-26T05:18:13.625Z,17.00
2022-07-26T05:20:41.299Z,17.20
2022-07-26T05:23:08.783Z,17.30
2022-07-26T05:25:36.892Z,17.60
2022-07-26T05:28:04.740Z,17.80
2022-07-26T05:30:32.308Z,18.00
2022-07-26T05:32:59.558Z,18.30
2022-07-26T05:35:26.950Z,18.50
2022-07-26T05:37:54.185Z,18.70
2022-07-26T05:40:21.592Z,19.00
2022-07-26T05:42:49.089Z,19.10
2022-07-26T05:45:16.428Z,19.30
2022-07-26T05:47:43.804Z,19.40
2022-07-26T05:50:11.425Z,19.50
2022-07-26T05:52:38.632Z,19.60
2022-07-26T05:55:06.582Z,19.70
2022-07-26T05:57:33.841Z,19.70
2022-07-26T06:00:00.973Z,19.80
2022-07-26T06:02:28.210Z,19.90
2022-07-26T06:04:55.552Z,20.00
2022-07-26T06:07:22.845Z,20.10
2022-07-26T06:09:50.026Z,20.20
2022-07-26T06:12:17.144Z,20.30
2022-07-26T06:14:44.338Z,20.40
2022-07-26T06:17:11.683Z,20.40
2022-07-26T06:19:38.824Z,20.50
2022-07-26T06:22:06.094Z,20.50
2022-07-26T06:24:33.412Z,20.50
2022-07-26T06:27:04.980Z,20.60
2022-07-26T06:29:32.917Z,20.60
2022-07-26T06:32:00.375Z,20.60
2022-07-26T06:34:27.803Z,20.70
2022-07-26T06:36:55.061Z,20.70
2022-07-26T06:39:22.220Z,20.70
2022-07-26T06:41:49.415Z,20.70
2022-07-26T06:44:16.682Z,20.80
2022-07-26T06:46:43.936Z,20.80
2022-07-26T06:49:11.225Z,20.90
2022-07-26T06:51:38.470Z,21.00
2022-07-26T06:54:06.068Z,21.00
2022-07-26T06:56:33.720Z,21.10
2022-07-26T06:59:03.058Z,21.10
2022-07-26T07:01:51.826Z,21.20
2022-07-26T07:04:19.733Z,21.20
2022-07-26T07:06:46.924Z,21.20
2022-07-26T07:09:16.695Z,21.30
2022-07-26T07:11:44.615Z,21.20
2022-07-26T07:14:12.396Z,21.30
2022-07-26T07:16:39.606Z,21.40
2022-07-26T07:19:07.025Z,21.40
2022-07-26T07:21:34.188Z,21.40
2022-07-26T07:24:01.917Z,21.40
2022-07-26T07:26:29.345Z,21.50
2022-07-26T07:28:56.511Z,21.60
2022-07-26T07:31:30.515Z,21.70
2022-07-26T07:34:11.734Z,21.70
2022-07-26T07:36:39.138Z,21.70
2022-07-26T07:39:07.595Z,21.80
2022-07-26T07:41:39.048Z,21.90
2022-07-26T07:44:06.701Z,22.00
2022-07-26T07:46:34.518Z,22.10
2022-07-26T07:49:01.965Z,22.20
2022-07-26T07:51:29.318Z,22.30
2022-07-26T07:53:57.978Z,22.30
2022-07-26T07:56:27.179Z,22.50
2022-07-26T07:58:54.331Z,22.60
2022-07-26T08:01:21.851Z,22.70
2022-07-26T08:03:50.351Z,22.80
2022-07-26T08:06:18.161Z,22.90
2022-07-26T08:08:48.566Z,23.00
2022-07-26T08:11:16.330Z,23.10
2022-07-26T08:13:47.805Z,23.10
2022-07-26T08:16:15.550Z,23.10
2022-07-26T08:18:56.056Z,23.10
2022-07-26T08:21:27.511Z,23.20
2022-07-26T08:23:56.611Z,23.30
2022-07-26T08:26:28.497Z,23.40
2022-07-26T08:28:59.570Z,23.50
2022-07-26T08:31:30.387Z,23.50
2022-07-26T08:33:57.548Z,23.70
2022-07-26T08:36:31.931Z,23.80
2022-07-26T08:38:59.891Z,23.90
2022-07-26T08:41:27.043Z,23.90
2022-07-26T08:43:54.405Z,23.90
2022-07-26T08:46:27.330Z,24.10
2022-07-26T08:48:57.091Z,24.00
2022-07-26T08:51:26.170Z,24.10
2022-07-26T08:54:02.207Z,24.10
2022-07-26T08:56:33.500Z,24.20
2022-07-26T08:59:19.718Z,24.20
2022-07-26T09:01:58.533Z,24.30
2022-07-26T09:04:36.318Z,24.20
2022-07-26T09:07:10.528Z,24.20
2022-07-26T09:09:57.268Z,24.30
2022-07-26T09:12:29.204Z,24.30
2022-07-26T09:14:57.794Z,24.40
2022-07-26T09:17:37.087Z,24.50
2022-07-26T09:20:11.841Z,24.50
2022-07-26T09:22:58.522Z,24.60
2022-07-26T09:25:29.515Z,24.70
2022-07-26T09:27:56.958Z,24.80
2022-07-26T09:30:24.225Z,25.00
2022-07-26T09:32:59.193Z,25.20
2022-07-26T09:38:15.703Z,25.20
2022-07-26T09:40:44.237Z,25.10
2022-07-26T09:43:24.124Z,25.00
2022-07-26T09:46:05.133Z,25.20
2022-07-26T09:48:59.440Z,25.30
2022-07-26T09:51:42.963Z,25.50
2022-07-26T09:54:12.604Z,25.60
2022-07-26T09:56:46.465Z,25.70
2022-07-26T09:59:20.242Z,25.60
2022-07-26T10:01:48.180Z,25.70
2022-07-26T10:04:16.232Z,25.60
2022-07-26T10:06:44.070Z,25.50
2022-07-26T10:09:12.122Z,25.70
2022-07-26T10:11:55.293Z,25.90
2022-07-26T10:14:45.889Z,26.00
2022-07-26T10:17:35.139Z,26.10
2022-07-26T10:20:10.705Z,26.10
2022-07-26T10:22:47.384Z,26.20
2022-07-26T10:25:17.662Z,26.50
2022-07-26T10:27:47.668Z,26.60
2022-07-26T10:30:18.259Z,26.60
2022-07-26T10:32:54.192Z,26.70
2022-07-26T10:35:36.728Z,26.80
2022-07-26T10:38:22.431Z,27.00
2022-07-26T10:41:04.382Z,27.10
2022-07-26T10:43:40.975Z,27.30
2022-07-26T10:46:20.725Z,27.30
2022-07-26T10:49:07.195Z,27.00
2022-07-26T10:51:36.838Z,26.80
2022-07-26T10:54:12.515Z,26.70
2022-07-26T10:56:40.848Z,26.70
2022-07-26T10:59:08.522Z,26.80
2022-07-26T11:01:41.675Z,26.90
2022-07-26T11:04:25.542Z,27.20
2022-07-26T11:06:53.314Z,27.60
2022-07-26T11:09:21.125Z,27.90
2022-07-26T11:11:48.959Z,28.00
2022-07-26T11:14:18.172Z,27.90
2022-07-26T11:16:53.273Z,27.80
2022-07-26T11:19:23.547Z,27.70
2022-07-26T11:22:02.531Z,27.50
2022-07-26T11:24:30.092Z,27.40
2022-07-26T11:27:02.598Z,27.70
2022-07-26T11:29:38.036Z,28.00
2022-07-26T11:32:18.101Z,28.40
2022-07-26T11:34:46.286Z,28.60
2022-07-26T11:37:13.839Z,28.70
2022-07-26T11:39:41.221Z,28.60
2022-07-26T11:42:09.365Z,28.60
2022-07-26T11:44:37.047Z,28.60
2022-07-26T11:47:25.506Z,28.40
2022-07-26T11:50:13.041Z,28.40
2022-07-26T11:52:41.732Z,28.70
2022-07-26T11:55:09.860Z,29.00
2022-07-26T11:57:37.447Z,29.20
2022-07-26T12:00:05.956Z,29.30
2022-07-26T12:02:33.380Z,29.50
2022-07-26T12:05:16.353Z,29.50
2022-07-26T12:08:03.078Z,29.30
2022-07-26T12:10:30.936Z,29.30
2022-07-26T12:13:15.439Z,29.30
2022-07-26T12:15:50.437Z,29.50
2022-07-26T12:18:31.877Z,29.80
2022-07-26T12:21:09.332Z,30.00
2022-07-26T12:23:45.514Z,30.10
2022-07-26T12:26:27.801Z,30.10
2022-07-26T12:28:56.459Z,30.00
2022-07-26T12:31:27.933Z,30.00
2022-07-26T12:33:55.853Z,30.20
2022-07-26T12:36:27.439Z,30.40
2022-07-26T12:38:58.292Z,30.60
2022-07-26T12:41:40.460Z,30.60
2022-07-26T12:44:12.657Z,30.80
2022-07-26T12:46:40.701Z,30.90
2022-07-26T12:49:08.347Z,31.10
2022-07-26T12:51:35.846Z,31.30
2022-07-26T12:54:06.612Z,31.40
2022-07-26T12:56:34.304Z,31.30
2022-07-26T12:59:01.872Z,31.20
2022-07-26T13:01:30.471Z,31.20
2022-07-26T13:03:58.088Z,31.30
2022-07-26T13:06:25.379Z,31.40
2022-07-26T13:08:52.728Z,31.70
2022-07-26T13:11:20.078Z,31.80
2022-07-26T13:13:47.322Z,32.00
2022-07-26T13:16:14.562Z,32.20
2022-07-26T13:18:41.801Z,32.50
2022-07-26T13:21:09.121Z,32.80
2022-07-26T13:23:36.576Z,33.10
2022-07-26T13:26:04.404Z,33.30
2022-07-26T13:28:36.436Z,33.60
2022-07-26T13:31:03.845Z,33.60
2022-07-26T13:33:32.310Z,33.50
2022-07-26T13:35:59.418Z,33.30
2022-07-26T13:38:28.506Z,33.10
2022-07-26T13:40:56.687Z,32.80
2022-07-26T13:43:24.482Z,32.60
2022-07-26T13:45:51.869Z,32.70
2022-07-26T13:48:19.427Z,32.70
2022-07-26T13:50:46.700Z,32.60
2022-07-26T13:53:13.917Z,32.40
2022-07-26T13:55:41.269Z,32.40
2022-07-26T13:58:10.203Z,32.30
2022-07-26T14:00:37.855Z,32.40
2022-07-26T14:03:05.603Z,32.40
2022-07-26T14:05:32.835Z,32.60
2022-07-26T14:08:00.317Z,32.90
2022-07-26T14:10:27.572Z,32.90
2022-07-26T14:12:55.015Z,32.80
2022-07-26T14:15:23.555Z,32.90
2022-07-26T14:17:52.621Z,33.10
2022-07-26T14:20:20.283Z,33.30
2022-07-26T14:22:48.602Z,33.60
2022-07-26T14:25:15.826Z,33.70
2022-07-26T14:27:43.130Z,33.80
2022-07-26T14:30:10.832Z,33.90
2022-07-26T14:32:38.097Z,34.00
2022-07-26T14:35:06.010Z,34.00
2022-07-26T14:37:44.749Z,34.00
2022-07-26T14:40:16.984Z,34.00
2022-07-26T14:42:45.304Z,33.80
2022-07-26T14:45:13.474Z,33.60
2022-07-26T14:47:40.768Z,33.50
2022-07-26T14:50:09.867Z,33.50
2022-07-26T14:52:38.607Z,33.60
2022-07-26T14:55:07.089Z,33.80
2022-07-26T14:57:39.919Z,33.90
2022-07-26T15:00:10.224Z,34.20
2022-07-26T15:02:41.876Z,34.40
2022-07-26T15:05:11.061Z,34.50
2022-07-26T15:07:39.374Z,34.30
2022-07-26T15:10:08.509Z,34.20
2022-07-26T15:12:36.065Z,34.20
2022-07-26T15:15:04.762Z,34.30
2022-07-26T15:17:32.308Z,34.40
2022-07-26T15:19:59.599Z,34.40
2022-07-26T15:22:27.003Z,34.30
2022-07-26T15:24:54.455Z,34.00
2022-07-26T15:27:21.683Z,33.50
2022-07-26T15:29:50.864Z,32.90
2022-07-26T15:32:19.958Z,32.20
2022-07-26T15:34:47.405Z,31.70
2022-07-26T15:37:14.707Z,31.60
2022-07-26T15:39:42.349Z,32.00
2022-07-26T15:42:09.925Z,32.40
2022-07-26T15:44:41.721Z,32.80
2022-07-26T15:47:09.413Z,33.00
2022-07-26T15:49:40.468Z,33.00
2022-07-26T15:52:11.758Z,32.70
2022-07-26T15:54:42.353Z,32.30
2022-07-26T15:57:10.030Z,32.10
2022-07-26T15:59:37.770Z,32.00
2022-07-26T16:02:06.165Z,32.00
2022-07-26T16:04:33.717Z,32.10
2022-07-26T16:07:01.478Z,32.10
2022-07-26T16:09:28.829Z,32.00
2022-07-26T16:11:56.351Z,31.70
2022-07-26T16:14:23.827Z,31.30
2022-07-26T16:16:51.228Z,31.00
2022-07-26T16:19:18.649Z,30.60
2022-07-26T16:21:46.086Z,30.20
2022-07-26T16:24:13.331Z,29.90
2022-07-26T16:26:42.544Z,29.60
2022-07-26T16:29:10.061Z,29.30
2022-07-26T16:31:37.963Z,28.90
2022-07-26T16:34:05.388Z,28.60
2022-07-26T16:36:32.741Z,28.20
2022-07-26T16:39:00.173Z,27.90
2022-07-26T16:41:29.373Z,27.70
2022-07-26T16:43:56.924Z,27.40
2022-07-26T16:46:24.664Z,27.10
2022-07-26T16:48:52.082Z,26.90
2022-07-26T16:51:20.096Z,26.70
2022-07-26T16:53:51.419Z,26.40
2022-07-26T16:56:19.091Z,26.30
2022-07-26T16:58:46.652Z,26.20
2022-07-26T17:01:16.061Z,26.00
2022-07-26T17:03:43.524Z,25.90
2022-07-26T17:06:10.852Z,25.70
2022-07-26T17:08:38.217Z,25.60
2022-07-26T17:11:05.527Z,25.50
2022-07-26T17:13:32.805Z,25.40
2022-07-26T17:16:00.910Z,25.30
2022-07-26T17:18:28.915Z,25.20
2022-07-26T17:20:57.823Z,25.10
2022-07-26T17:23:25.074Z,25.00
2022-07-26T17:25:52.281Z,24.90
2022-07-26T17:28:19.511Z,24.80
2022-07-26T17:30:46.772Z,24.70
2022-07-26T17:33:14.317Z,24.60
2022-07-26T17:35:41.543Z,24.50
2022-07-26T17:38:08.764Z,24.30
2022-07-26T17:40:35.973Z,24.20
2022-07-26T17:43:05.694Z,24.10
2022-07-26T17:45:32.881Z,24.00
2022-07-26T17:48:05.632Z,23.90
2022-07-26T17:50:36.948Z,23.80
2022-07-26T17:53:05.231Z,23.60
2022-07-26T17:55:32.477Z,23.50
2022-07-26T17:57:59.744Z,23.40
2022-07-26T18:00:29.310Z,23.30
2022-07-26T18:02:57.564Z,23.10
2022-07-26T18:05:31.724Z,23.00
2022-07-26T18:08:00.015Z,22.90
2022-07-26T18:10:28.383Z,22.80
2022-07-26T18:12:55.730Z,22.70
2022-07-26T18:15:23.114Z,22.60
2022-07-26T18:17:50.441Z,22.50
2022-07-26T18:20:17.534Z,22.50
2022-07-26T18:22:45.849Z,22.40
2022-07-26T18:25:17.491Z,22.30
2022-07-26T18:27:44.607Z,22.30
2022-07-26T18:30:12.210Z,22.10
2022-07-26T18:32:39.417Z,22.10
2022-07-26T18:35:07.845Z,22.00
2022-07-26T18:37:34.985Z,21.90
2022-07-26T18:40:02.276Z,21.80
2022-07-26T18:42:29.468Z,21.70
2022-07-26T18:44:56.882Z,21.70
2022-07-26T18:47:24.113Z,21.70
2022-07-26T18:49:51.529Z,21.60
2022-07-26T18:52:28.867Z,21.60
2022-07-26T18:55:01.105Z,21.50
2022-07-26T18:57:28.211Z,21.40
2022-07-26T18:59:56.317Z,21.40
2022-07-26T19:02:23.427Z,21.40
2022-07-26T19:04:51.562Z,21.40
2022-07-26T19:07:18.662Z,21.30
2022-07-26T19:09:45.985Z,21.30
2022-07-26T19:12:13.107Z,21.30
2022-07-26T19:14:40.483Z,21.30
2022-07-26T19:17:17.455Z,21.30
2022-07-26T19:19:44.859Z,21.30
2022-07-26T19:22:12.036Z,21.30
2022-07-26T19:24:39.563Z,21.30
2022-07-26T19:27:08.484Z,21.30
2022-07-26T19:29:38.494Z,21.30
2022-07-26T19:32:06.075Z,21.30
2022-07-26T19:34:33.535Z,21.30
2022-07-26T19:37:00.971Z,21.30
2022-07-26T19:39:29.010Z,21.30
2022-07-26T19:41:57.637Z,21.30
2022-07-26T19:44:24.790Z,21.30
2022-07-26T19:46:57.023Z,21.20
2022-07-26T19:49:26.933Z,21.20
2022-07-26T19:51:55.277Z,21.20
2022-07-26T19:54:23.066Z,21.20
2022-07-26T19:56:51.129Z,21.20
2022-07-26T19:59:23.427Z,21.20
2022-07-26T20:01:58.404Z,21.10
2022-07-26T20:04:26.616Z,21.00
2022-07-26T20:06:58.277Z,20.90
2022-07-26T20:09:29.261Z,20.80
2022-07-26T20:11:58.474Z,20.60
2022-07-26T20:14:26.062Z,20.60
2022-07-26T20:16:56.249Z,20.50
2022-07-26T20:19:25.823Z,20.40
2022-07-26T20:21:55.832Z,20.30
2022-07-26T20:24:25.419Z,20.20
2022-07-26T20:26:55.470Z,20.20
2022-07-26T20:29:22.991Z,20.10
2022-07-26T20:31:50.325Z,20.00
2022-07-26T20:34:17.649Z,19.90
2022-07-26T20:36:44.981Z,19.80
2022-07-26T20:39:12.680Z,19.80
2022-07-26T20:41:40.421Z,19.80
2022-07-26T20:44:08.282Z,19.70
2022-07-26T20:46:40.240Z,19.70
2022-07-26T20:49:09.436Z,19.70
2022-07-26T20:51:37.481Z,19.60
2022-07-26T20:54:04.951Z,19.50
2022-07-26T20:56:35.228Z,19.50
2022-07-26T20:59:02.560Z,19.50
2022-07-26T21:01:31.293Z,19.40
2022-07-26T21:03:59.238Z,19.40
2022-07-26T21:06:29.010Z,19.30
2022-07-26T21:08:57.995Z,19.30
2022-07-26T21:11:25.714Z,19.30
2022-07-26T21:13:53.134Z,19.30
2022-07-26T21:16:20.791Z,19.30
2022-07-26T21:18:52.831Z,19.30
2022-07-26T21:21:21.426Z,19.20
2022-07-26T21:23:48.977Z,19.20
2022-07-26T21:26:16.257Z,19.20
2022-07-26T21:28:43.508Z,19.20
2022-07-26T21:31:10.786Z,19.10
2022-07-26T21:33:38.068Z,19.10
2022-07-26T21:36:05.900Z,19.10
2022-07-26T21:38:33.953Z,19.10
2022-07-26T21:41:01.289Z,19.00
2022-07-26T21:43:28.581Z,19.00
2022-07-26T21:45:55.992Z,18.90
2022-07-26T21:48:24.152Z,18.90
2022-07-26T21:50:51.859Z,18.80
2022-07-26T21:53:19.219Z,18.80
2022-07-26T21:55:46.632Z,18.70
2022-07-26T21:58:14.136Z,18.70
2022-07-26T22:00:41.625Z,18.60
2022-07-26T22:03:09.096Z,18.60
2022-07-26T22:05:38.303Z,18.70
2022-07-26T22:08:07.769Z,18.60
2022-07-26T22:10:35.666Z,18.60
2022-07-26T22:13:12.655Z,18.60
2022-07-26T22:15:40.060Z,18.60
2022-07-26T22:18:09.549Z,18.60
2022-07-26T22:20:37.318Z,18.60
2022-07-26T22:23:07.835Z,18.60
2022-07-26T22:25:36.661Z,18.60
2022-07-26T22:28:05.369Z,18.60
2022-07-26T22:30:33.570Z,18.60
2022-07-26T22:33:02.087Z,18.60
2022-07-26T22:35:34.864Z,18.50
2022-07-26T22:38:11.143Z,18.40
2022-07-26T22:40:39.599Z,18.30
2022-07-26T22:43:07.702Z,18.30
2022-07-26T22:45:35.565Z,18.20
2022-07-26T22:48:04.601Z,18.20
2022-07-26T22:50:33.082Z,18.10
2022-07-26T22:53:03.125Z,18.10
2022-07-26T22:55:30.973Z,18.00
2022-07-26T22:57:58.404Z,17.90
2022-07-26T23:00:26.057Z,17.90
2022-07-26T23:02:53.815Z,17.90
2022-07-26T23:05:22.339Z,17.80
2022-07-26T23:08:01.756Z,17.80
2022-07-26T23:10:31.040Z,17.70
2022-07-26T23:12:58.308Z,17.70
2022-07-26T23:15:25.769Z,17.70
2022-07-26T23:17:53.031Z,17.70
2022-07-26T23:20:20.372Z,17.70
2022-07-26T23:22:48.063Z,17.70
2022-07-26T23:25:15.286Z,17.60
2022-07-26T23:27:42.598Z,17.60
2022-07-26T23:30:10.130Z,17.50
2022-07-26T23:32:37.502Z,17.50
2022-07-26T23:35:05.300Z,17.40
2022-07-26T23:37:32.730Z,17.40
2022-07-26T23:39:59.981Z,17.30
2022-07-26T23:42:27.324Z,17.30
2022-07-26T23:44:54.640Z,17.30
2022-07-26T23:47:21.918Z,17.20
2022-07-26T23:49:49.336Z,17.20
2022-07-26T23:52:16.859Z,17.20
2022-07-26T23:54:45.525Z,17.20
2022-07-26T23:57:12.832Z,17.20
2022-07-26T23:59:40.179Z,17.20
